Wyatt, IN (46595)

1:42 AM EDT on March 25, 2017 (GMT -0400)
Bremen, IN | | Change Station

Elev 823 ft 41.44 °N, 86.16 °W | Updated 4 seconds ago

Mostly Cloudy
Mostly Cloudy
56.9 °F
Feels Like 56.9 °F
N
1.0
Wind Variable Wind from NE
Gusts 32.0 mph

Today
High -- | Low -- °F
--% Chance of Precip.
Yesterday
High -- | Low -- °F
Precip. -- in
Pressure 30.03 in
Visibility 10.0 miles
Clouds Few 4000 ft
Scattered Clouds 4900 ft
Mostly Cloudy 11000 ft
Dew Point 50 °F
Humidity 77%
Rainfall 0.00 in
Snow Depth Not available.
7:39 AM 8:02 PM
Waning Crescent, 10% visible
METAR KSBN 250454Z AUTO 00000KT 10SM FEW040 SCT049 BKN110 11/07 A3004 RMK AO2 RAE03 SLP169 P0000 T01060072 402560072
Pressure 30.03 in
Visibility 10.0 miles
Clouds Few 4000 ft
Scattered Clouds 4900 ft
Mostly Cloudy 11000 ft
Dew Point 50 °F
Humidity 77%
Rainfall 0.00 in
Snow Depth Not available.
7:39 AM 8:02 PM
Waning Crescent, 10% visible
METAR KSBN 250454Z AUTO 00000KT 10SM FEW040 SCT049 BKN110 11/07 A3004 RMK AO2 RAE03 SLP169 P0000 T01060072 402560072

Get Severe Weather Alerts

Thanks for signing up!

Be on the lookout for a verification email in your inbox.

You'll start receiving the daily forecast at 8 AM.

×

10-Day Weather Forecast

Almanac

Astronomy

Mar. 25, 2017 Rise Set
Actual Time
Civil Twilight
Nautical Twilight
Astronomical Twilight
Moon
Length of Visible Light
Length of Day
Tomorrow will be .
, % of the Moon is Illuminated

Today's Extremes

State Highs State Lows

Community

WunderPhotos

Upload Photos

1,962,540 photos uploaded!

WunderBlog® & News

Nearby

Air Quality

  Air Quality AQ Index Pollutant
Not available.

Snow Depth

Station Depth Elevation

Earthquake Activity

City Distance Mag. Time & Date
Minimum magnitude displayed is 2.5.

Earthquake Activity

City Distance Mag. Time & Date
Minimum magnitude displayed is 2.5.

Coastal Water Temperatures

Place Temperature

Stations

Nearby Weather Stations

Station Location Temp. Windchill Dew Point Humidity Wind Precip. Elev Updated Type
                   

Watches & Warnings

There are currently no watches in effect.